KIDA/IDA METAR and TAF weather

Enter ICAO airport designator
Station Type Date Time Source
KIDA METAR 2024/02/26 18:53 UTC NOAA

KIDA 261853Z 24028G41KT 10SM FEW041 SCT050 BKN060 06/M01 A2960 RMK AO2 PK WND 24049/1822 SLP021 T00611011


Station Type Date Time Source
KIDA Decoded METAR 2024/02/26 18:53 UTC NOAA

IDAHO FALLS REGIONAL AIRPORT, ID, United States (KIDA) 43-31N 112-04W 1453M
Feb 26, 2024 - 01:53 PM EST / 2024.02.26 1853 UTC
Wind: from the WSW (240 degrees) at 32 MPH (28 KT) gusting to 47 MPH (41 KT):0
Visibility: 10 mile(s):0
Sky conditions: mostly cloudy
Temperature: 43.0 F (6.1 C)
Dew Point: 30.0 F (-1.1 C)
Relative Humidity: 59%
Pressure (altimeter): 29.6 in. Hg (1002 hPa)
ob: KIDA 261853Z 24028G41KT 10SM FEW041 SCT050 BKN060 06/M01 A2960 RMK AO2 PK WND 24049/1822 SLP021 T00611011
cycle: 19

Station Type Date Time Source
KIDA TAF 2024/02/26 18:24 UTC NOAA